createdAt,value
2018-07-12T00:00:34.177Z,92.32
2018-07-12T00:03:04.262Z,92.10
2018-07-12T00:05:37.316Z,92.07
2018-07-12T00:08:07.570Z,92.05
2018-07-12T00:10:39.562Z,92.09
2018-07-12T00:13:15.673Z,92.30
2018-07-12T00:15:48.617Z,92.44
2018-07-12T00:18:19.098Z,92.49
2018-07-12T00:20:58.744Z,92.57
2018-07-12T00:23:29.702Z,92.53
2018-07-12T00:26:04.981Z,92.37
2018-07-12T00:28:35.965Z,92.24
2018-07-12T00:31:06.325Z,92.25
2018-07-12T00:33:39.625Z,92.41
2018-07-12T00:36:13.288Z,92.49
2018-07-12T00:38:44.435Z,92.49
2018-07-12T00:41:18.065Z,92.38
2018-07-12T00:43:49.378Z,92.34
2018-07-12T00:46:20.331Z,92.28
2018-07-12T00:48:50.689Z,91.99
2018-07-12T00:51:21.590Z,92.01
2018-07-12T00:53:52.365Z,92.23
2018-07-12T00:56:23.058Z,92.35
2018-07-12T00:58:53.396Z,92.28
2018-07-12T01:01:23.758Z,92.06
2018-07-12T01:03:56.018Z,91.89
2018-07-12T01:06:28.454Z,91.74
2018-07-12T01:08:58.617Z,91.59
2018-07-12T01:11:31.602Z,91.76
2018-07-12T01:14:03.579Z,91.92
2018-07-12T01:16:35.704Z,92.08
2018-07-12T01:19:07.184Z,92.36
2018-07-12T01:21:39.782Z,92.37
2018-07-12T01:27:30.640Z,92.68
2018-07-12T01:30:04.248Z,92.75
2018-07-12T01:32:34.546Z,92.87
2018-07-12T01:35:04.900Z,92.92
2018-07-12T01:37:35.219Z,92.91
2018-07-12T01:40:05.749Z,92.82
2018-07-12T01:42:36.242Z,92.51
2018-07-12T01:45:06.399Z,92.22
2018-07-12T01:47:36.482Z,92.40
2018-07-12T01:50:07.045Z,92.30
2018-07-12T01:52:37.381Z,92.23
2018-07-12T01:55:07.717Z,92.15
2018-07-12T01:57:39.621Z,92.23
2018-07-12T02:00:10.218Z,92.13
2018-07-12T02:02:46.365Z,91.70
2018-07-12T02:05:16.777Z,91.67
2018-07-12T02:07:48.560Z,91.79
2018-07-12T02:10:19.864Z,92.07
2018-07-12T02:12:50.178Z,92.22
2018-07-12T02:15:20.346Z,92.47
2018-07-12T02:17:51.238Z,92.79
2018-07-12T02:20:42.881Z,92.61
2018-07-12T02:23:16.704Z,92.78
2018-07-12T02:25:47.630Z,92.67
2018-07-12T02:28:18.735Z,92.45
2018-07-12T02:30:50.556Z,92.22
2018-07-12T02:33:22.524Z,92.21
2018-07-12T02:35:54.794Z,91.88
2018-07-12T02:38:25.205Z,91.94
2018-07-12T02:40:56.698Z,91.97
2018-07-12T02:43:26.887Z,92.57
2018-07-12T02:45:57.882Z,92.20
2018-07-12T02:48:32.731Z,92.19
2018-07-12T02:51:03.671Z,92.43
2018-07-12T02:53:34.225Z,92.67
2018-07-12T02:56:04.316Z,92.60
2018-07-12T02:58:34.470Z,92.60
2018-07-12T03:01:06.220Z,92.59
2018-07-12T03:03:36.307Z,92.77
2018-07-12T03:06:06.512Z,92.74
2018-07-12T03:08:37.006Z,92.89
2018-07-12T03:11:07.322Z,92.89
2018-07-12T03:13:38.663Z,92.98
2018-07-12T03:16:08.958Z,92.72
2018-07-12T03:18:39.720Z,93.10
2018-07-12T03:21:10.565Z,93.01
2018-07-12T03:23:41.188Z,93.36
2018-07-12T03:26:11.330Z,93.86
2018-07-12T03:28:41.653Z,93.62
2018-07-12T03:31:11.722Z,93.40
2018-07-12T03:33:43.111Z,93.37
2018-07-12T03:36:13.222Z,93.51
2018-07-12T03:38:43.714Z,93.91
2018-07-12T03:41:14.753Z,94.11
2018-07-12T03:43:45.020Z,94.32
2018-07-12T03:46:15.313Z,94.53
2018-07-12T03:49:17.294Z,94.65
2018-07-12T03:51:49.128Z,94.67
2018-07-12T03:54:22.418Z,94.87
2018-07-12T03:56:55.185Z,95.03
2018-07-12T03:59:25.304Z,94.92
2018-07-12T04:01:56.216Z,94.89
2018-07-12T04:04:26.373Z,94.80
2018-07-12T04:06:57.560Z,94.76
2018-07-12T04:09:28.007Z,94.66
2018-07-12T04:11:59.457Z,94.57
2018-07-12T04:14:29.680Z,94.62
2018-07-12T04:17:00.041Z,94.64
2018-07-12T04:19:30.141Z,94.54
2018-07-12T04:22:00.702Z,94.43
2018-07-12T04:24:30.987Z,94.34
2018-07-12T04:27:02.167Z,94.34
2018-07-12T04:29:34.330Z,94.38
2018-07-12T04:32:05.683Z,94.47
2018-07-12T04:34:36.915Z,94.42
2018-07-12T04:37:07.763Z,94.27
2018-07-12T04:39:39.458Z,94.28
2018-07-12T04:42:09.849Z,94.32
2018-07-12T04:44:41.076Z,94.40
2018-07-12T04:47:11.310Z,94.47
2018-07-12T04:49:41.841Z,94.47
2018-07-12T04:52:12.636Z,94.52
2018-07-12T04:54:42.817Z,94.61
2018-07-12T04:57:12.985Z,94.72
2018-07-12T04:59:43.361Z,94.74
2018-07-12T05:02:13.641Z,94.70
2018-07-12T05:04:45.637Z,94.73
2018-07-12T05:07:16.753Z,94.82
2018-07-12T05:09:47.930Z,94.84
2018-07-12T05:12:19.037Z,95.03
2018-07-12T05:14:49.212Z,94.78
2018-07-12T05:17:20.333Z,94.80
2018-07-12T05:19:52.105Z,94.83
2018-07-12T05:22:23.303Z,94.75
2018-07-12T05:25:11.178Z,94.44
2018-07-12T05:27:45.813Z,94.25
2018-07-12T05:30:16.981Z,94.37
2018-07-12T05:32:49.088Z,94.49
2018-07-12T05:35:19.447Z,94.46
2018-07-12T05:37:55.692Z,94.33
2018-07-12T05:40:28.675Z,94.36
2018-07-12T05:43:02.438Z,94.13
2018-07-12T05:45:35.866Z,94.17
2018-07-12T05:48:08.674Z,94.19
2018-07-12T05:50:48.816Z,94.23
2018-07-12T05:53:22.446Z,94.16
2018-07-12T05:55:55.524Z,94.04
2018-07-12T05:58:28.382Z,94.18
2018-07-12T06:02:15.783Z,93.94
2018-07-12T06:04:53.953Z,93.80
2018-07-12T06:07:28.908Z,93.92
2018-07-12T06:10:02.281Z,93.93
2018-07-12T06:12:34.725Z,94.18
2018-07-12T06:15:09.578Z,93.87
2018-07-12T06:17:44.365Z,93.42
2018-07-12T06:20:19.256Z,93.29
2018-07-12T06:22:55.169Z,93.31
2018-07-12T06:25:28.949Z,93.24
2018-07-12T06:28:04.205Z,92.82
2018-07-12T06:30:37.717Z,92.14
2018-07-12T06:33:10.141Z,92.01
2018-07-12T06:35:44.745Z,91.55
2018-07-12T06:38:33.979Z,91.70
2018-07-12T06:41:10.689Z,90.02
2018-07-12T06:43:45.228Z,89.28
2018-07-12T06:46:18.301Z,89.12
2018-07-12T06:48:51.858Z,89.15
2018-07-12T06:51:26.120Z,87.80
2018-07-12T06:54:01.029Z,86.81
2018-07-12T06:56:36.721Z,86.46
2018-07-12T06:59:14.680Z,86.90
2018-07-12T07:01:48.680Z,87.09
2018-07-12T07:04:25.446Z,86.82
2018-07-12T07:06:59.741Z,86.33
2018-07-12T07:09:36.291Z,85.06
2018-07-12T07:12:16.837Z,85.15
2018-07-12T07:14:51.121Z,83.49
2018-07-12T07:17:27.660Z,83.32
2018-07-12T07:20:02.198Z,83.18
2018-07-12T07:22:35.261Z,83.30
2018-07-12T07:25:08.793Z,82.40
2018-07-12T07:27:42.262Z,80.66
2018-07-12T07:30:19.606Z,78.64
2018-07-12T07:32:53.769Z,78.15
2018-07-12T07:35:28.487Z,77.19
2018-07-12T07:38:05.143Z,76.24
2018-07-12T07:40:39.669Z,75.38
2018-07-12T07:43:13.649Z,75.16
2018-07-12T07:45:51.075Z,75.63
2018-07-12T07:48:25.141Z,75.02
2018-07-12T07:50:59.491Z,74.99
2018-07-12T07:53:34.021Z,75.31
2018-07-12T07:56:06.764Z,74.74
2018-07-12T07:58:49.869Z,75.04
2018-07-12T08:01:24.429Z,75.29
2018-07-12T08:03:59.685Z,75.76
2018-07-12T08:06:33.779Z,75.12
2018-07-12T08:09:07.579Z,74.69
2018-07-12T08:11:41.111Z,75.61
2018-07-12T08:14:15.025Z,74.65
2018-07-12T08:16:49.541Z,74.83
2018-07-12T08:19:25.170Z,74.19
2018-07-12T08:22:08.484Z,72.62
2018-07-12T08:24:41.643Z,71.22
2018-07-12T08:27:15.944Z,69.40
2018-07-12T08:29:52.206Z,65.74
2018-07-12T08:32:26.044Z,62.45
2018-07-12T08:34:59.703Z,62.16
2018-07-12T08:37:34.572Z,62.44
2018-07-12T08:40:11.029Z,63.01
2018-07-12T08:42:45.148Z,64.53
2018-07-12T08:45:19.856Z,65.89
2018-07-12T08:47:55.670Z,66.29
2018-07-12T08:50:35.773Z,65.91
2018-07-12T08:53:10.038Z,63.28
2018-07-12T08:55:43.598Z,59.44
2018-07-12T08:58:17.700Z,59.15
2018-07-12T09:00:51.572Z,59.67
2018-07-12T09:03:24.849Z,57.93
2018-07-12T09:06:01.934Z,57.08
2018-07-12T09:08:34.805Z,56.63
2018-07-12T09:11:08.145Z,57.17
2018-07-12T09:13:41.081Z,58.68
2018-07-12T09:16:17.018Z,60.98
2018-07-12T09:18:53.895Z,61.61
2018-07-12T09:21:28.553Z,64.41
2018-07-12T09:24:01.461Z,65.65
2018-07-12T09:26:34.553Z,64.63
2018-07-12T09:29:07.606Z,61.80
2018-07-12T09:31:41.297Z,58.64
2018-07-12T09:34:13.904Z,55.97
2018-07-12T09:36:49.361Z,53.22
2018-07-12T09:39:24.492Z,54.23
2018-07-12T09:41:59.446Z,53.97
2018-07-12T09:44:34.078Z,51.28
2018-07-12T09:47:09.310Z,49.47
2018-07-12T09:49:45.139Z,49.31
2018-07-12T09:52:24.400Z,49.73
2018-07-12T09:54:58.062Z,50.68
2018-07-12T09:57:53.657Z,50.00
2018-07-12T10:00:33.281Z,50.49
2018-07-12T10:03:14.457Z,50.66
2018-07-12T10:05:56.962Z,49.00
2018-07-12T10:08:37.645Z,47.43
2018-07-12T10:11:30.429Z,47.21
2018-07-12T10:14:09.234Z,47.07
2018-07-12T10:17:10.949Z,47.03
2018-07-12T10:19:56.440Z,45.55
2018-07-12T10:22:33.041Z,45.63
2018-07-12T10:25:12.220Z,44.15
2018-07-12T10:27:48.915Z,45.62
2018-07-12T10:30:24.506Z,47.48
2018-07-12T10:32:57.106Z,48.32
2018-07-12T10:35:37.626Z,49.43
2018-07-12T10:38:11.902Z,49.77
2018-07-12T10:40:56.451Z,50.45
2018-07-12T10:43:31.977Z,50.89
2018-07-12T10:46:10.429Z,49.04
2018-07-12T10:48:43.017Z,48.61
2018-07-12T10:51:16.154Z,48.50
2018-07-12T10:53:49.393Z,50.40
2018-07-12T10:56:24.563Z,49.57
2018-07-12T10:59:02.364Z,48.61
2018-07-12T11:01:35.702Z,46.55
2018-07-12T11:04:09.153Z,47.00
2018-07-12T11:06:46.177Z,47.59
2018-07-12T11:09:19.124Z,49.55
2018-07-12T11:11:58.526Z,50.76
2018-07-12T11:14:33.688Z,50.90
2018-07-12T11:17:09.384Z,51.23
2018-07-12T11:19:44.190Z,50.80
2018-07-12T11:22:18.961Z,48.98
2018-07-12T11:24:52.517Z,47.74
2018-07-12T11:27:26.894Z,45.90
2018-07-12T11:30:05.415Z,45.53
2018-07-12T11:32:38.985Z,44.05
2018-07-12T11:35:14.409Z,45.62
2018-07-12T11:37:48.526Z,44.96
2018-07-12T11:40:21.753Z,43.91
2018-07-12T11:43:01.496Z,43.00
2018-07-12T11:45:41.650Z,41.35
2018-07-12T11:48:15.656Z,40.03
2018-07-12T11:50:49.755Z,40.46
2018-07-12T11:53:25.166Z,41.56
2018-07-12T11:55:58.301Z,42.43
2018-07-12T11:58:34.414Z,41.76
2018-07-12T12:01:07.767Z,39.83
2018-07-12T12:03:41.361Z,39.62
2018-07-12T12:06:14.182Z,37.53
2018-07-12T12:08:47.463Z,36.89
2018-07-12T12:11:21.674Z,36.50
2018-07-12T12:13:58.978Z,37.89
2018-07-12T12:16:32.798Z,39.60
2018-07-12T12:19:07.864Z,41.55
2018-07-12T12:21:50.410Z,42.32
2018-07-12T12:24:31.552Z,43.16
2018-07-12T12:27:05.487Z,41.94
2018-07-12T12:29:40.456Z,40.53
2018-07-12T12:32:15.510Z,37.70
2018-07-12T12:34:50.363Z,37.40
2018-07-12T12:37:25.139Z,37.42
2018-07-12T12:39:58.639Z,38.95
2018-07-12T12:42:32.936Z,39.55
2018-07-12T12:45:09.283Z,39.29
2018-07-12T12:47:56.125Z,39.37
2018-07-12T12:50:32.581Z,38.67
2018-07-12T12:53:07.815Z,38.53
2018-07-12T12:55:42.520Z,38.02
2018-07-12T12:58:19.613Z,36.62
2018-07-12T13:00:55.277Z,36.95
2018-07-12T13:03:41.878Z,37.68
2018-07-12T13:06:32.477Z,38.14
2018-07-12T13:09:13.479Z,40.28
2018-07-12T13:11:49.750Z,40.28
2018-07-12T13:14:25.475Z,38.91
2018-07-12T13:17:02.345Z,37.70
2018-07-12T13:19:39.353Z,36.75
2018-07-12T13:22:14.325Z,34.73
2018-07-12T13:24:47.373Z,36.94
2018-07-12T13:27:21.965Z,37.71
2018-07-12T13:29:57.864Z,37.78
2018-07-12T13:32:34.341Z,37.21
2018-07-12T13:35:10.904Z,36.36
2018-07-12T13:37:44.822Z,36.44
2018-07-12T13:40:20.249Z,37.84
2018-07-12T13:42:53.497Z,38.42
2018-07-12T13:45:34.118Z,38.28
2018-07-12T13:48:22.991Z,36.85
2018-07-12T13:50:55.940Z,35.47
2018-07-12T13:53:30.136Z,34.12
2018-07-12T13:56:03.230Z,32.59
2018-07-12T14:27:44.110Z,34.64
2018-07-12T14:30:27.689Z,33.87
2018-07-12T14:33:07.624Z,32.74
2018-07-12T14:35:44.714Z,32.96
2018-07-12T14:38:19.300Z,33.48
2018-07-12T14:40:53.104Z,34.49
2018-07-12T14:43:27.951Z,35.56
2018-07-12T14:46:01.539Z,35.36
2018-07-12T14:48:35.471Z,35.24
2018-07-12T14:51:09.193Z,34.75
2018-07-12T14:53:41.809Z,34.68
2018-07-12T14:56:17.679Z,35.32
2018-07-12T14:58:51.289Z,35.03
2018-07-12T15:01:24.720Z,34.45
2018-07-12T15:03:58.598Z,33.07
2018-07-12T15:06:31.280Z,32.57
2018-07-12T15:09:08.772Z,31.93
2018-07-12T15:11:47.266Z,32.34
2018-07-12T15:14:19.863Z,32.17
2018-07-12T15:16:55.875Z,33.01
2018-07-12T15:19:30.802Z,31.72
2018-07-12T15:22:06.921Z,30.69
2018-07-12T15:24:40.090Z,30.61
2018-07-12T15:27:15.845Z,30.63
2018-07-12T15:29:49.423Z,30.77
2018-07-12T15:32:22.982Z,30.03
2018-07-12T15:34:59.077Z,29.10
2018-07-12T15:37:33.557Z,29.44
2018-07-12T15:40:08.018Z,30.01
2018-07-12T15:42:43.600Z,29.01
2018-07-12T15:45:21.280Z,28.11
2018-07-12T15:47:55.192Z,27.35
2018-07-12T15:50:27.927Z,27.40
2018-07-12T15:53:06.751Z,26.53
2018-07-12T15:55:55.831Z,26.80
2018-07-12T15:58:40.225Z,28.01
2018-07-12T16:01:15.336Z,28.73
2018-07-12T16:03:51.846Z,28.42
2018-07-12T16:06:28.524Z,29.05
2018-07-12T16:09:10.697Z,29.52
2018-07-12T16:11:49.856Z,29.77
2018-07-12T16:14:25.145Z,28.96
2018-07-12T16:16:59.981Z,28.84
2018-07-12T16:19:36.089Z,28.12
2018-07-12T16:22:14.855Z,28.21
2018-07-12T16:24:51.302Z,28.12
2018-07-12T16:27:41.393Z,28.07
2018-07-12T16:30:25.369Z,27.08
2018-07-12T16:33:00.409Z,27.08
2018-07-12T16:35:34.889Z,27.44
2018-07-12T16:38:17.490Z,27.13
2018-07-12T16:40:54.358Z,27.38
2018-07-12T16:43:28.655Z,27.71
2018-07-12T16:46:05.315Z,27.66
2018-07-12T16:48:41.081Z,27.47
2018-07-12T16:51:15.746Z,27.39
2018-07-12T16:53:50.655Z,27.78
2018-07-12T16:56:31.352Z,27.83
2018-07-12T16:59:06.676Z,28.39
2018-07-12T17:01:41.928Z,29.31
2018-07-12T17:04:15.854Z,30.63
2018-07-12T17:06:48.620Z,31.51
2018-07-12T17:09:26.569Z,32.48
2018-07-12T17:12:00.566Z,33.46
2018-07-12T17:14:34.062Z,33.80
2018-07-12T17:17:12.005Z,34.39
2018-07-12T17:19:45.501Z,34.39
2018-07-12T17:22:18.472Z,34.22
2018-07-12T17:24:51.588Z,34.03
2018-07-12T17:27:30.294Z,33.63
2018-07-12T17:30:07.714Z,33.88
2018-07-12T17:32:42.544Z,34.42
2018-07-12T17:35:15.244Z,34.14
2018-07-12T17:37:49.259Z,34.28
2018-07-12T17:40:26.450Z,34.47
2018-07-12T17:43:03.056Z,34.67
2018-07-12T17:45:37.381Z,35.01
2018-07-12T17:48:19.318Z,35.52
2018-07-12T17:50:51.909Z,36.01
2018-07-12T17:53:26.625Z,37.02
2018-07-12T17:56:00.759Z,37.89
2018-07-12T17:58:35.704Z,39.18
2018-07-12T18:01:09.924Z,40.12
2018-07-12T18:03:45.672Z,40.86
2018-07-12T18:06:20.396Z,41.80
2018-07-12T18:08:56.020Z,42.67
2018-07-12T18:11:30.469Z,43.44
2018-07-12T18:14:07.066Z,44.24
2018-07-12T18:16:43.100Z,44.32
2018-07-12T18:19:20.341Z,44.51
2018-07-12T18:21:56.309Z,45.00
2018-07-12T18:24:32.803Z,45.24
2018-07-12T18:27:08.747Z,45.18
2018-07-12T18:29:45.124Z,45.18
2018-07-12T18:32:19.494Z,45.59
2018-07-12T18:34:56.558Z,46.25
2018-07-12T18:37:34.111Z,46.72
2018-07-12T18:40:10.520Z,47.09
2018-07-12T18:42:47.557Z,47.50
2018-07-12T18:45:32.987Z,47.72
2018-07-12T18:48:09.750Z,47.84
2018-07-12T18:50:44.305Z,48.03
2018-07-12T18:53:20.619Z,48.22
2018-07-12T18:55:53.170Z,48.17
2018-07-12T18:58:28.216Z,48.19
2018-07-12T19:01:01.517Z,48.41
2018-07-12T19:03:34.771Z,48.09
2018-07-12T19:06:08.467Z,48.15
2018-07-12T19:08:43.981Z,47.47
2018-07-12T19:11:28.013Z,47.62
2018-07-12T19:14:04.129Z,47.21
2018-07-12T19:16:39.589Z,46.94
2018-07-12T19:19:16.109Z,46.73
2018-07-12T19:21:53.086Z,46.71
2018-07-12T19:24:48.417Z,47.09
2018-07-12T19:27:30.263Z,47.47
2018-07-12T19:30:09.521Z,47.91
2018-07-12T19:32:49.336Z,48.33
2018-07-12T19:35:31.949Z,48.77
2018-07-12T19:38:09.020Z,49.37
2018-07-12T19:40:47.469Z,49.95
2018-07-12T19:43:25.678Z,50.59
2018-07-12T19:46:00.389Z,51.11
2018-07-12T19:48:43.564Z,51.47
2018-07-12T19:51:17.298Z,51.95
2018-07-12T19:53:59.894Z,52.34
2018-07-12T19:56:33.983Z,52.70
2018-07-12T19:59:08.744Z,53.01
2018-07-12T20:01:47.474Z,53.25
2018-07-12T20:04:23.216Z,53.24
2018-07-12T20:06:58.338Z,53.31
2018-07-12T20:09:35.302Z,53.74
2018-07-12T20:12:10.446Z,54.18
2018-07-12T20:14:45.196Z,54.41
2018-07-12T20:17:23.847Z,54.54
2018-07-12T20:19:58.055Z,54.66
2018-07-12T20:22:35.496Z,54.93
2018-07-12T20:25:10.816Z,55.18
2018-07-12T20:27:45.765Z,55.18
2018-07-12T20:30:23.396Z,55.31
2018-07-12T20:32:57.241Z,55.41
2018-07-12T20:35:31.387Z,55.71
2018-07-12T20:38:07.955Z,55.95
2018-07-12T20:40:43.989Z,56.34
2018-07-12T20:43:22.415Z,56.78
2018-07-12T20:45:55.271Z,56.89
2018-07-12T20:48:36.130Z,57.10
2018-07-12T20:51:16.926Z,57.47
2018-07-12T20:53:52.643Z,57.83
2018-07-12T20:56:28.717Z,57.80
2018-07-12T20:59:03.678Z,58.40
2018-07-12T21:01:44.317Z,58.43
2018-07-12T21:04:17.992Z,59.86
2018-07-12T21:06:52.395Z,59.75
2018-07-12T21:09:25.620Z,60.13
2018-07-12T21:12:05.634Z,60.68
2018-07-12T21:14:39.817Z,61.28
2018-07-12T21:17:17.753Z,61.71
2018-07-12T21:19:57.234Z,62.16
2018-07-12T21:22:32.320Z,62.69
2018-07-12T21:25:09.015Z,63.16
2018-07-12T21:27:46.243Z,65.38
2018-07-12T21:30:19.242Z,65.73
2018-07-12T21:32:52.602Z,65.98
2018-07-12T21:35:32.577Z,66.49
2018-07-12T21:38:06.664Z,66.63
2018-07-12T21:40:40.926Z,67.06
2018-07-12T21:43:16.490Z,67.18
2018-07-12T21:45:53.128Z,67.82
2018-07-12T21:48:30.690Z,69.46
2018-07-12T21:51:17.480Z,69.31
2018-07-12T21:53:52.015Z,70.29
2018-07-12T21:56:28.010Z,70.41
2018-07-12T21:59:04.342Z,70.62
2018-07-12T22:01:42.951Z,70.81
2018-07-12T22:04:18.429Z,71.00
2018-07-12T22:09:30.749Z,70.69
2018-07-12T22:12:06.150Z,70.39
2018-07-12T22:14:41.034Z,70.41
2018-07-12T22:17:18.051Z,70.44
2018-07-12T22:20:00.247Z,70.52
2018-07-12T22:22:34.074Z,70.48
2018-07-12T22:25:09.833Z,71.06
2018-07-12T22:27:44.845Z,71.05
2018-07-12T22:30:16.759Z,72.24
2018-07-12T22:32:50.615Z,72.41
2018-07-12T22:35:27.530Z,72.92
2018-07-12T22:38:03.145Z,73.30
2018-07-12T22:40:38.902Z,74.92
2018-07-12T22:43:12.465Z,75.28
2018-07-12T22:45:47.561Z,76.18
2018-07-12T22:48:21.732Z,75.97
2018-07-12T22:50:56.469Z,76.14
2018-07-12T22:53:38.790Z,76.36
2018-07-12T22:56:16.529Z,77.93
2018-07-12T22:58:55.879Z,78.29
2018-07-12T23:01:31.010Z,78.28
2018-07-12T23:04:05.132Z,78.96
2018-07-12T23:06:39.149Z,79.07
2018-07-12T23:09:12.887Z,79.60
2018-07-12T23:11:48.346Z,79.76
2018-07-12T23:14:20.931Z,79.88
2018-07-12T23:16:53.749Z,80.76
2018-07-12T23:19:26.688Z,80.71
2018-07-12T23:22:07.981Z,81.02
2018-07-12T23:24:46.909Z,81.46
2018-07-12T23:27:19.439Z,81.65
2018-07-12T23:30:14.487Z,82.04
2018-07-12T23:32:47.064Z,81.85
2018-07-12T23:35:19.722Z,82.01
2018-07-12T23:37:52.654Z,81.65
2018-07-12T23:40:25.467Z,81.80
2018-07-12T23:42:59.071Z,82.10
2018-07-12T23:45:34.039Z,82.23
2018-07-12T23:48:06.678Z,82.34
2018-07-12T23:50:39.210Z,82.01
2018-07-12T23:53:14.374Z,82.01
2018-07-12T23:55:47.288Z,82.18
2018-07-12T23:58:20.050Z,83.16
